sensor_id;sensor_type;location;lat;lon;timestamp;P1;durP1;ratioP1;P2;durP2;ratioP2
5981;SDS011;3018;48.730;9.336;2022-10-04T00:02:01;5.47;;;4.97;;
5981;SDS011;3018;48.730;9.336;2022-10-04T00:04:29;7.00;;;4.75;;
5981;SDS011;3018;48.730;9.336;2022-10-04T00:06:59;6.68;;;4.60;;
5981;SDS011;3018;48.730;9.336;2022-10-04T00:09:28;6.32;;;4.88;;
5981;SDS011;3018;48.730;9.336;2022-10-04T00:11:56;6.22;;;4.80;;
5981;SDS011;3018;48.730;9.336;2022-10-04T00:14:24;10.23;;;5.07;;
5981;SDS011;3018;48.730;9.336;2022-10-04T00:16:52;5.43;;;4.68;;
5981;SDS011;3018;48.730;9.336;2022-10-04T00:19:37;5.53;;;4.88;;
5981;SDS011;3018;48.730;9.336;2022-10-04T00:22:11;7.63;;;5.20;;
5981;SDS011;3018;48.730;9.336;2022-10-04T00:27:25;8.80;;;5.38;;
5981;SDS011;3018;48.730;9.336;2022-10-04T00:32:41;5.80;;;4.97;;
5981;SDS011;3018;48.730;9.336;2022-10-04T00:37:54;8.23;;;5.03;;
5981;SDS011;3018;48.730;9.336;2022-10-04T00:40:21;9.80;;;5.28;;
5981;SDS011;3018;48.730;9.336;2022-10-04T00:42:54;5.85;;;5.25;;
5981;SDS011;3018;48.730;9.336;2022-10-04T00:45:23;9.55;;;6.03;;
5981;SDS011;3018;48.730;9.336;2022-10-04T00:48:00;6.20;;;5.10;;
5981;SDS011;3018;48.730;9.336;2022-10-04T00:50:28;7.97;;;5.05;;
5981;SDS011;3018;48.730;9.336;2022-10-04T00:52:59;6.15;;;4.93;;
5981;SDS011;3018;48.730;9.336;2022-10-04T00:55:28;5.28;;;4.75;;
5981;SDS011;3018;48.730;9.336;2022-10-04T00:57:57;5.32;;;4.78;;
5981;SDS011;3018;48.730;9.336;2022-10-04T01:00:25;6.03;;;4.95;;
5981;SDS011;3018;48.730;9.336;2022-10-04T01:02:57;6.30;;;4.97;;
5981;SDS011;3018;48.730;9.336;2022-10-04T01:05:24;5.53;;;5.03;;
5981;SDS011;3018;48.730;9.336;2022-10-04T01:07:53;7.40;;;5.10;;
5981;SDS011;3018;48.730;9.336;2022-10-04T01:10:23;5.00;;;4.68;;
5981;SDS011;3018;48.730;9.336;2022-10-04T01:12:51;4.85;;;4.55;;
5981;SDS011;3018;48.730;9.336;2022-10-04T01:15:21;4.97;;;4.50;;
5981;SDS011;3018;48.730;9.336;2022-10-04T01:18:05;6.05;;;5.07;;
5981;SDS011;3018;48.730;9.336;2022-10-04T01:20:33;9.18;;;4.80;;
5981;SDS011;3018;48.730;9.336;2022-10-04T01:23:01;5.43;;;4.93;;
5981;SDS011;3018;48.730;9.336;2022-10-04T01:28:09;6.78;;;5.40;;
5981;SDS011;3018;48.730;9.336;2022-10-04T01:30:36;7.13;;;5.22;;
5981;SDS011;3018;48.730;9.336;2022-10-04T01:33:02;6.93;;;6.20;;
5981;SDS011;3018;48.730;9.336;2022-10-04T01:35:30;4.85;;;4.55;;
5981;SDS011;3018;48.730;9.336;2022-10-04T01:37:58;5.40;;;4.90;;
5981;SDS011;3018;48.730;9.336;2022-10-04T01:40:26;5.55;;;5.15;;
5981;SDS011;3018;48.730;9.336;2022-10-04T01:42:53;6.30;;;5.57;;
5981;SDS011;3018;48.730;9.336;2022-10-04T01:45:22;6.47;;;5.35;;
5981;SDS011;3018;48.730;9.336;2022-10-04T01:47:51;6.18;;;5.68;;
5981;SDS011;3018;48.730;9.336;2022-10-04T01:50:20;6.03;;;5.63;;
5981;SDS011;3018;48.730;9.336;2022-10-04T01:52:48;6.32;;;5.32;;
5981;SDS011;3018;48.730;9.336;2022-10-04T01:55:16;5.93;;;5.43;;
5981;SDS011;3018;48.730;9.336;2022-10-04T01:57:46;9.43;;;5.18;;
5981;SDS011;3018;48.730;9.336;2022-10-04T02:00:14;9.35;;;5.43;;
5981;SDS011;3018;48.730;9.336;2022-10-04T02:02:42;7.25;;;5.82;;
5981;SDS011;3018;48.730;9.336;2022-10-04T02:05:11;11.65;;;6.05;;
5981;SDS011;3018;48.730;9.336;2022-10-04T02:07:38;8.55;;;6.13;;
5981;SDS011;3018;48.730;9.336;2022-10-04T02:10:07;7.00;;;6.40;;
5981;SDS011;3018;48.730;9.336;2022-10-04T02:12:34;8.23;;;6.55;;
5981;SDS011;3018;48.730;9.336;2022-10-04T02:15:05;9.50;;;6.70;;
5981;SDS011;3018;48.730;9.336;2022-10-04T02:17:32;7.03;;;6.28;;
5981;SDS011;3018;48.730;9.336;2022-10-04T02:20:03;9.52;;;6.72;;
5981;SDS011;3018;48.730;9.336;2022-10-04T02:22:34;25.90;;;7.40;;
5981;SDS011;3018;48.730;9.336;2022-10-04T02:25:00;8.75;;;6.22;;
5981;SDS011;3018;48.730;9.336;2022-10-04T02:27:27;18.45;;;6.43;;
5981;SDS011;3018;48.730;9.336;2022-10-04T02:29:58;6.40;;;5.85;;
5981;SDS011;3018;48.730;9.336;2022-10-04T02:32:26;7.93;;;5.85;;
5981;SDS011;3018;48.730;9.336;2022-10-04T02:35:11;6.45;;;5.85;;
5981;SDS011;3018;48.730;9.336;2022-10-04T02:37:38;12.82;;;5.90;;
5981;SDS011;3018;48.730;9.336;2022-10-04T02:40:07;8.40;;;5.78;;
5981;SDS011;3018;48.730;9.336;2022-10-04T02:42:36;5.50;;;5.10;;
5981;SDS011;3018;48.730;9.336;2022-10-04T02:45:04;5.95;;;5.40;;
5981;SDS011;3018;48.730;9.336;2022-10-04T02:47:35;23.02;;;5.80;;
5981;SDS011;3018;48.730;9.336;2022-10-04T02:50:05;20.92;;;6.50;;
5981;SDS011;3018;48.730;9.336;2022-10-04T02:52:35;32.72;;;6.50;;
5981;SDS011;3018;48.730;9.336;2022-10-04T02:55:03;33.88;;;7.78;;
5981;SDS011;3018;48.730;9.336;2022-10-04T02:57:32;7.30;;;6.32;;
5981;SDS011;3018;48.730;9.336;2022-10-04T03:00:03;8.70;;;6.70;;
5981;SDS011;3018;48.730;9.336;2022-10-04T03:02:36;7.55;;;6.82;;
5981;SDS011;3018;48.730;9.336;2022-10-04T03:05:04;15.30;;;6.88;;
5981;SDS011;3018;48.730;9.336;2022-10-04T03:07:31;7.68;;;6.30;;
5981;SDS011;3018;48.730;9.336;2022-10-04T03:09:58;28.83;;;7.50;;
5981;SDS011;3018;48.730;9.336;2022-10-04T03:12:25;8.05;;;6.63;;
5981;SDS011;3018;48.730;9.336;2022-10-04T03:14:51;7.03;;;6.45;;
5981;SDS011;3018;48.730;9.336;2022-10-04T03:17:18;6.68;;;6.07;;
5981;SDS011;3018;48.730;9.336;2022-10-04T03:19:46;7.25;;;6.60;;
5981;SDS011;3018;48.730;9.336;2022-10-04T03:22:17;7.22;;;6.63;;
5981;SDS011;3018;48.730;9.336;2022-10-04T03:24:44;7.00;;;6.40;;
5981;SDS011;3018;48.730;9.336;2022-10-04T03:27:11;7.60;;;6.90;;
5981;SDS011;3018;48.730;9.336;2022-10-04T03:29:39;10.25;;;5.70;;
5981;SDS011;3018;48.730;9.336;2022-10-04T03:32:09;6.28;;;4.82;;
5981;SDS011;3018;48.730;9.336;2022-10-04T03:34:37;29.20;;;6.15;;
5981;SDS011;3018;48.730;9.336;2022-10-04T03:37:07;5.88;;;5.43;;
5981;SDS011;3018;48.730;9.336;2022-10-04T03:39:35;5.70;;;5.20;;
5981;SDS011;3018;48.730;9.336;2022-10-04T03:42:03;5.97;;;5.43;;
5981;SDS011;3018;48.730;9.336;2022-10-04T03:44:32;7.57;;;6.82;;
5981;SDS011;3018;48.730;9.336;2022-10-04T03:46:59;6.40;;;5.80;;
5981;SDS011;3018;48.730;9.336;2022-10-04T03:49:29;6.15;;;5.55;;
5981;SDS011;3018;48.730;9.336;2022-10-04T03:51:56;5.63;;;5.32;;
5981;SDS011;3018;48.730;9.336;2022-10-04T03:54:24;6.10;;;5.60;;
5981;SDS011;3018;48.730;9.336;2022-10-04T03:56:52;5.75;;;5.35;;
5981;SDS011;3018;48.730;9.336;2022-10-04T03:59:19;8.05;;;5.40;;
5981;SDS011;3018;48.730;9.336;2022-10-04T04:01:46;10.40;;;5.57;;
5981;SDS011;3018;48.730;9.336;2022-10-04T04:04:18;6.57;;;5.97;;
5981;SDS011;3018;48.730;9.336;2022-10-04T04:06:49;29.63;;;6.60;;
5981;SDS011;3018;48.730;9.336;2022-10-04T04:09:18;7.20;;;5.80;;
5981;SDS011;3018;48.730;9.336;2022-10-04T04:11:48;6.93;;;6.32;;
5981;SDS011;3018;48.730;9.336;2022-10-04T04:14:17;9.82;;;6.47;;
5981;SDS011;3018;48.730;9.336;2022-10-04T04:16:45;6.70;;;6.18;;
5981;SDS011;3018;48.730;9.336;2022-10-04T04:19:12;11.02;;;6.30;;
5981;SDS011;3018;48.730;9.336;2022-10-04T04:21:41;7.15;;;5.60;;
5981;SDS011;3018;48.730;9.336;2022-10-04T04:24:12;6.18;;;5.68;;
5981;SDS011;3018;48.730;9.336;2022-10-04T04:26:40;6.13;;;5.63;;
5981;SDS011;3018;48.730;9.336;2022-10-04T04:29:10;8.73;;;6.00;;
5981;SDS011;3018;48.730;9.336;2022-10-04T04:31:41;6.25;;;5.63;;
5981;SDS011;3018;48.730;9.336;2022-10-04T04:34:15;5.43;;;4.90;;
5981;SDS011;3018;48.730;9.336;2022-10-04T04:36:42;8.63;;;4.25;;
5981;SDS011;3018;48.730;9.336;2022-10-04T04:39:11;4.95;;;4.50;;
5981;SDS011;3018;48.730;9.336;2022-10-04T04:41:56;4.82;;;4.50;;
5981;SDS011;3018;48.730;9.336;2022-10-04T04:44:24;4.22;;;3.92;;
5981;SDS011;3018;48.730;9.336;2022-10-04T04:46:51;5.28;;;4.88;;
5981;SDS011;3018;48.730;9.336;2022-10-04T04:49:17;9.80;;;6.68;;
5981;SDS011;3018;48.730;9.336;2022-10-04T04:51:45;10.20;;;7.80;;
5981;SDS011;3018;48.730;9.336;2022-10-04T04:54:13;9.52;;;7.38;;
5981;SDS011;3018;48.730;9.336;2022-10-04T04:56:40;10.18;;;6.85;;
5981;SDS011;3018;48.730;9.336;2022-10-04T04:59:07;6.90;;;6.25;;
5981;SDS011;3018;48.730;9.336;2022-10-04T05:01:35;6.00;;;5.60;;
5981;SDS011;3018;48.730;9.336;2022-10-04T05:04:02;6.13;;;5.20;;
5981;SDS011;3018;48.730;9.336;2022-10-04T05:06:29;14.10;;;6.28;;
5981;SDS011;3018;48.730;9.336;2022-10-04T05:08:56;11.85;;;6.65;;
5981;SDS011;3018;48.730;9.336;2022-10-04T05:11:24;11.30;;;6.95;;
5981;SDS011;3018;48.730;9.336;2022-10-04T05:13:53;8.85;;;5.75;;
5981;SDS011;3018;48.730;9.336;2022-10-04T05:16:21;8.27;;;6.25;;
5981;SDS011;3018;48.730;9.336;2022-10-04T05:18:54;8.73;;;6.28;;
5981;SDS011;3018;48.730;9.336;2022-10-04T05:21:21;7.82;;;6.95;;
5981;SDS011;3018;48.730;9.336;2022-10-04T05:23:48;17.88;;;7.07;;
5981;SDS011;3018;48.730;9.336;2022-10-04T05:26:16;9.32;;;6.40;;
5981;SDS011;3018;48.730;9.336;2022-10-04T05:28:45;7.25;;;6.57;;
5981;SDS011;3018;48.730;9.336;2022-10-04T05:31:24;9.40;;;6.78;;
5981;SDS011;3018;48.730;9.336;2022-10-04T05:33:55;7.20;;;6.53;;
5981;SDS011;3018;48.730;9.336;2022-10-04T05:39:08;9.15;;;6.75;;
5981;SDS011;3018;48.730;9.336;2022-10-04T05:41:38;7.22;;;6.55;;
5981;SDS011;3018;48.730;9.336;2022-10-04T05:44:16;6.50;;;5.90;;
5981;SDS011;3018;48.730;9.336;2022-10-04T05:46:44;9.05;;;5.57;;
5981;SDS011;3018;48.730;9.336;2022-10-04T05:49:13;6.13;;;5.63;;
5981;SDS011;3018;48.730;9.336;2022-10-04T05:51:47;5.50;;;5.10;;
5981;SDS011;3018;48.730;9.336;2022-10-04T05:54:14;6.00;;;5.50;;
5981;SDS011;3018;48.730;9.336;2022-10-04T05:59:37;6.25;;;5.65;;
5981;SDS011;3018;48.730;9.336;2022-10-04T06:02:08;7.45;;;5.85;;
5981;SDS011;3018;48.730;9.336;2022-10-04T06:04:46;5.95;;;5.53;;
5981;SDS011;3018;48.730;9.336;2022-10-04T06:07:17;7.93;;;5.93;;
5981;SDS011;3018;48.730;9.336;2022-10-04T06:09:50;8.70;;;5.90;;
5981;SDS011;3018;48.730;9.336;2022-10-04T06:12:23;6.60;;;5.45;;
5981;SDS011;3018;48.730;9.336;2022-10-04T06:15:03;8.15;;;6.32;;
5981;SDS011;3018;48.730;9.336;2022-10-04T06:17:39;6.80;;;6.10;;
5981;SDS011;3018;48.730;9.336;2022-10-04T06:20:12;6.53;;;5.93;;
5981;SDS011;3018;48.730;9.336;2022-10-04T06:22:43;7.13;;;5.55;;
5981;SDS011;3018;48.730;9.336;2022-10-04T06:25:15;19.67;;;5.78;;
5981;SDS011;3018;48.730;9.336;2022-10-04T06:27:46;14.20;;;6.60;;
5981;SDS011;3018;48.730;9.336;2022-10-04T06:30:14;6.70;;;5.90;;
5981;SDS011;3018;48.730;9.336;2022-10-04T06:32:45;7.15;;;6.50;;
5981;SDS011;3018;48.730;9.336;2022-10-04T06:35:24;9.52;;;6.45;;
5981;SDS011;3018;48.730;9.336;2022-10-04T06:38:14;7.40;;;6.18;;
5981;SDS011;3018;48.730;9.336;2022-10-04T06:40:51;6.78;;;6.18;;
5981;SDS011;3018;48.730;9.336;2022-10-04T06:43:25;7.72;;;5.70;;
5981;SDS011;3018;48.730;9.336;2022-10-04T06:46:01;7.10;;;6.18;;
5981;SDS011;3018;48.730;9.336;2022-10-04T06:48:42;5.38;;;5.00;;
5981;SDS011;3018;48.730;9.336;2022-10-04T06:51:18;5.90;;;5.05;;
5981;SDS011;3018;48.730;9.336;2022-10-04T06:53:50;5.47;;;4.97;;
5981;SDS011;3018;48.730;9.336;2022-10-04T06:56:33;5.25;;;4.72;;
5981;SDS011;3018;48.730;9.336;2022-10-04T06:59:05;4.95;;;4.65;;
5981;SDS011;3018;48.730;9.336;2022-10-04T07:01:37;6.18;;;5.00;;
5981;SDS011;3018;48.730;9.336;2022-10-04T07:04:14;6.03;;;5.60;;
5981;SDS011;3018;48.730;9.336;2022-10-04T07:06:46;6.40;;;5.80;;
5981;SDS011;3018;48.730;9.336;2022-10-04T07:09:18;6.90;;;5.68;;
5981;SDS011;3018;48.730;9.336;2022-10-04T07:11:48;6.00;;;5.43;;
5981;SDS011;3018;48.730;9.336;2022-10-04T07:14:16;10.10;;;6.22;;
5981;SDS011;3018;48.730;9.336;2022-10-04T07:16:44;8.10;;;5.97;;
5981;SDS011;3018;48.730;9.336;2022-10-04T07:19:21;6.75;;;6.15;;
5981;SDS011;3018;48.730;9.336;2022-10-04T07:21:55;10.60;;;6.85;;
5981;SDS011;3018;48.730;9.336;2022-10-04T07:24:23;7.75;;;6.38;;
5981;SDS011;3018;48.730;9.336;2022-10-04T07:26:51;11.50;;;6.97;;
5981;SDS011;3018;48.730;9.336;2022-10-04T07:29:19;11.27;;;8.10;;
5981;SDS011;3018;48.730;9.336;2022-10-04T07:31:46;14.63;;;7.57;;
5981;SDS011;3018;48.730;9.336;2022-10-04T07:34:15;12.35;;;7.63;;
5981;SDS011;3018;48.730;9.336;2022-10-04T07:36:43;17.98;;;9.07;;
5981;SDS011;3018;48.730;9.336;2022-10-04T07:39:12;8.23;;;7.38;;
5981;SDS011;3018;48.730;9.336;2022-10-04T07:41:42;12.05;;;6.22;;
5981;SDS011;3018;48.730;9.336;2022-10-04T07:44:12;7.90;;;6.68;;
5981;SDS011;3018;48.730;9.336;2022-10-04T07:46:43;8.13;;;6.25;;
5981;SDS011;3018;48.730;9.336;2022-10-04T07:49:12;12.73;;;6.70;;
5981;SDS011;3018;48.730;9.336;2022-10-04T07:51:39;9.55;;;7.65;;
5981;SDS011;3018;48.730;9.336;2022-10-04T07:54:10;8.45;;;7.60;;
5981;SDS011;3018;48.730;9.336;2022-10-04T07:56:40;8.52;;;7.57;;
5981;SDS011;3018;48.730;9.336;2022-10-04T07:59:16;8.57;;;7.57;;
5981;SDS011;3018;48.730;9.336;2022-10-04T08:01:49;8.55;;;7.75;;
5981;SDS011;3018;48.730;9.336;2022-10-04T08:04:24;11.25;;;7.70;;
5981;SDS011;3018;48.730;9.336;2022-10-04T08:06:57;10.50;;;8.10;;
5981;SDS011;3018;48.730;9.336;2022-10-04T08:09:27;8.80;;;7.70;;
5981;SDS011;3018;48.730;9.336;2022-10-04T08:12:03;10.55;;;8.27;;
5981;SDS011;3018;48.730;9.336;2022-10-04T08:14:35;8.43;;;7.38;;
5981;SDS011;3018;48.730;9.336;2022-10-04T08:17:06;8.52;;;7.47;;
5981;SDS011;3018;48.730;9.336;2022-10-04T08:19:38;7.45;;;6.63;;
5981;SDS011;3018;48.730;9.336;2022-10-04T08:22:11;7.25;;;6.50;;
5981;SDS011;3018;48.730;9.336;2022-10-04T08:24:41;8.93;;;7.25;;
5981;SDS011;3018;48.730;9.336;2022-10-04T08:27:20;9.07;;;7.43;;
5981;SDS011;3018;48.730;9.336;2022-10-04T08:30:01;8.80;;;6.90;;
5981;SDS011;3018;48.730;9.336;2022-10-04T08:32:39;7.60;;;6.93;;
5981;SDS011;3018;48.730;9.336;2022-10-04T08:35:13;8.18;;;6.65;;
5981;SDS011;3018;48.730;9.336;2022-10-04T08:37:46;9.48;;;7.10;;
5981;SDS011;3018;48.730;9.336;2022-10-04T08:40:27;7.43;;;6.72;;
5981;SDS011;3018;48.730;9.336;2022-10-04T08:46:10;6.47;;;5.90;;
5981;SDS011;3018;48.730;9.336;2022-10-04T08:51:37;7.00;;;6.05;;
5981;SDS011;3018;48.730;9.336;2022-10-04T08:54:19;6.25;;;5.60;;
5981;SDS011;3018;48.730;9.336;2022-10-04T08:59:33;9.10;;;5.53;;
5981;SDS011;3018;48.730;9.336;2022-10-04T09:02:27;12.43;;;8.35;;
5981;SDS011;3018;48.730;9.336;2022-10-04T09:05:12;9.57;;;6.70;;
5981;SDS011;3018;48.730;9.336;2022-10-04T09:07:53;7.78;;;5.82;;
5981;SDS011;3018;48.730;9.336;2022-10-04T09:10:32;8.43;;;6.10;;
5981;SDS011;3018;48.730;9.336;2022-10-04T09:13:04;10.85;;;7.90;;
5981;SDS011;3018;48.730;9.336;2022-10-04T09:18:32;9.52;;;5.28;;
5981;SDS011;3018;48.730;9.336;2022-10-04T09:21:03;8.18;;;6.65;;
5981;SDS011;3018;48.730;9.336;2022-10-04T09:26:20;7.47;;;5.78;;
5981;SDS011;3018;48.730;9.336;2022-10-04T09:31:48;5.32;;;4.63;;
5981;SDS011;3018;48.730;9.336;2022-10-04T09:34:26;8.82;;;4.85;;
5981;SDS011;3018;48.730;9.336;2022-10-04T09:42:29;8.95;;;4.38;;
5981;SDS011;3018;48.730;9.336;2022-10-04T09:45:18;5.45;;;4.47;;
5981;SDS011;3018;48.730;9.336;2022-10-04T09:47:53;5.72;;;4.45;;
5981;SDS011;3018;48.730;9.336;2022-10-04T09:50:38;9.02;;;4.15;;
5981;SDS011;3018;48.730;9.336;2022-10-04T09:53:18;9.27;;;4.60;;
5981;SDS011;3018;48.730;9.336;2022-10-04T09:55:56;5.50;;;3.75;;
5981;SDS011;3018;48.730;9.336;2022-10-04T10:01:15;4.07;;;3.70;;
5981;SDS011;3018;48.730;9.336;2022-10-04T10:04:00;8.10;;;3.88;;
5981;SDS011;3018;48.730;9.336;2022-10-04T10:06:43;7.22;;;3.15;;
5981;SDS011;3018;48.730;9.336;2022-10-04T10:09:15;6.13;;;3.40;;
5981;SDS011;3018;48.730;9.336;2022-10-04T10:11:45;4.78;;;3.67;;
5981;SDS011;3018;48.730;9.336;2022-10-04T10:14:36;6.40;;;3.80;;
5981;SDS011;3018;48.730;9.336;2022-10-04T10:17:06;4.30;;;2.95;;
5981;SDS011;3018;48.730;9.336;2022-10-04T10:19:54;9.75;;;4.10;;
5981;SDS011;3018;48.730;9.336;2022-10-04T10:22:46;7.63;;;4.22;;
5981;SDS011;3018;48.730;9.336;2022-10-04T10:25:20;7.97;;;4.03;;
5981;SDS011;3018;48.730;9.336;2022-10-04T10:27:53;5.47;;;4.13;;
5981;SDS011;3018;48.730;9.336;2022-10-04T10:30:24;8.85;;;4.20;;
5981;SDS011;3018;48.730;9.336;2022-10-04T10:32:59;5.45;;;3.75;;
5981;SDS011;3018;48.730;9.336;2022-10-04T10:35:33;7.05;;;4.20;;
5981;SDS011;3018;48.730;9.336;2022-10-04T10:38:22;6.68;;;3.47;;
5981;SDS011;3018;48.730;9.336;2022-10-04T10:43:44;7.60;;;3.42;;
5981;SDS011;3018;48.730;9.336;2022-10-04T10:46:20;4.55;;;2.85;;
5981;SDS011;3018;48.730;9.336;2022-10-04T10:48:57;5.40;;;3.17;;
5981;SDS011;3018;48.730;9.336;2022-10-04T10:51:33;4.00;;;3.33;;
5981;SDS011;3018;48.730;9.336;2022-10-04T10:56:50;5.65;;;3.40;;
5981;SDS011;3018;48.730;9.336;2022-10-04T11:02:07;10.13;;;3.67;;
5981;SDS011;3018;48.730;9.336;2022-10-04T11:04:42;5.97;;;3.20;;
5981;SDS011;3018;48.730;9.336;2022-10-04T11:07:17;6.00;;;3.40;;
5981;SDS011;3018;48.730;9.336;2022-10-04T11:09:57;7.15;;;2.63;;
5981;SDS011;3018;48.730;9.336;2022-10-04T11:12:50;6.15;;;3.10;;
5981;SDS011;3018;48.730;9.336;2022-10-04T11:20:51;9.70;;;3.17;;
5981;SDS011;3018;48.730;9.336;2022-10-04T11:23:31;7.68;;;3.17;;
5981;SDS011;3018;48.730;9.336;2022-10-04T11:26:18;7.97;;;2.65;;
5981;SDS011;3018;48.730;9.336;2022-10-04T11:28:49;5.82;;;2.67;;
5981;SDS011;3018;48.730;9.336;2022-10-04T11:31:31;5.88;;;2.85;;
5981;SDS011;3018;48.730;9.336;2022-10-04T11:34:16;6.18;;;2.85;;
5981;SDS011;3018;48.730;9.336;2022-10-04T11:36:50;8.82;;;3.35;;
5981;SDS011;3018;48.730;9.336;2022-10-04T11:39:40;12.90;;;2.88;;
5981;SDS011;3018;48.730;9.336;2022-10-04T11:42:14;2.80;;;2.30;;
5981;SDS011;3018;48.730;9.336;2022-10-04T11:44:59;3.55;;;2.40;;
5981;SDS011;3018;48.730;9.336;2022-10-04T11:47:32;4.18;;;2.13;;
5981;SDS011;3018;48.730;9.336;2022-10-04T11:50:07;4.90;;;2.75;;
5981;SDS011;3018;48.730;9.336;2022-10-04T11:52:47;5.18;;;2.30;;
5981;SDS011;3018;48.730;9.336;2022-10-04T11:55:26;4.38;;;2.13;;
5981;SDS011;3018;48.730;9.336;2022-10-04T11:58:00;8.70;;;2.28;;
5981;SDS011;3018;48.730;9.336;2022-10-04T12:00:31;3.80;;;1.75;;
5981;SDS011;3018;48.730;9.336;2022-10-04T12:03:19;5.70;;;2.13;;
5981;SDS011;3018;48.730;9.336;2022-10-04T12:05:51;5.47;;;1.77;;
5981;SDS011;3018;48.730;9.336;2022-10-04T12:08:22;2.75;;;1.67;;
5981;SDS011;3018;48.730;9.336;2022-10-04T12:11:02;3.15;;;1.88;;
5981;SDS011;3018;48.730;9.336;2022-10-04T12:13:43;2.95;;;2.05;;
5981;SDS011;3018;48.730;9.336;2022-10-04T12:19:05;4.40;;;1.98;;
5981;SDS011;3018;48.730;9.336;2022-10-04T12:21:46;4.50;;;2.00;;
5981;SDS011;3018;48.730;9.336;2022-10-04T12:24:21;3.40;;;1.90;;
5981;SDS011;3018;48.730;9.336;2022-10-04T12:27:01;4.22;;;1.83;;
5981;SDS011;3018;48.730;9.336;2022-10-04T12:29:51;5.75;;;1.90;;
5981;SDS011;3018;48.730;9.336;2022-10-04T12:32:22;6.10;;;3.30;;
5981;SDS011;3018;48.730;9.336;2022-10-04T12:34:53;2.97;;;2.00;;
5981;SDS011;3018;48.730;9.336;2022-10-04T12:37:23;9.02;;;2.03;;
5981;SDS011;3018;48.730;9.336;2022-10-04T12:39:56;6.45;;;2.00;;
5981;SDS011;3018;48.730;9.336;2022-10-04T12:42:32;5.72;;;2.10;;
5981;SDS011;3018;48.730;9.336;2022-10-04T12:45:02;6.55;;;2.25;;
5981;SDS011;3018;48.730;9.336;2022-10-04T12:47:42;4.22;;;2.38;;
5981;SDS011;3018;48.730;9.336;2022-10-04T12:50:13;5.57;;;2.08;;
5981;SDS011;3018;48.730;9.336;2022-10-04T12:52:43;3.38;;;1.88;;
5981;SDS011;3018;48.730;9.336;2022-10-04T12:55:16;4.05;;;1.85;;
5981;SDS011;3018;48.730;9.336;2022-10-04T12:57:45;4.00;;;2.00;;
5981;SDS011;3018;48.730;9.336;2022-10-04T13:00:15;4.45;;;1.92;;
5981;SDS011;3018;48.730;9.336;2022-10-04T13:05:31;5.35;;;2.20;;
5981;SDS011;3018;48.730;9.336;2022-10-04T13:08:01;4.72;;;2.05;;
5981;SDS011;3018;48.730;9.336;2022-10-04T13:10:36;3.28;;;1.90;;
5981;SDS011;3018;48.730;9.336;2022-10-04T13:15:50;2.72;;;1.63;;
5981;SDS011;3018;48.730;9.336;2022-10-04T13:18:20;4.53;;;1.52;;
5981;SDS011;3018;48.730;9.336;2022-10-04T13:20:50;9.40;;;1.80;;
5981;SDS011;3018;48.730;9.336;2022-10-04T13:23:25;3.22;;;1.95;;
5981;SDS011;3018;48.730;9.336;2022-10-04T13:26:07;4.32;;;1.88;;
5981;SDS011;3018;48.730;9.336;2022-10-04T13:28:41;5.07;;;2.00;;
5981;SDS011;3018;48.730;9.336;2022-10-04T13:31:14;4.88;;;1.77;;
5981;SDS011;3018;48.730;9.336;2022-10-04T13:33:50;4.13;;;1.90;;
5981;SDS011;3018;48.730;9.336;2022-10-04T13:36:22;5.97;;;3.67;;
5981;SDS011;3018;48.730;9.336;2022-10-04T13:38:57;3.42;;;2.22;;
5981;SDS011;3018;48.730;9.336;2022-10-04T13:41:28;4.13;;;2.00;;
5981;SDS011;3018;48.730;9.336;2022-10-04T13:44:11;2.75;;;1.33;;
5981;SDS011;3018;48.730;9.336;2022-10-04T13:46:41;3.97;;;1.98;;
5981;SDS011;3018;48.730;9.336;2022-10-04T13:49:22;2.67;;;1.52;;
5981;SDS011;3018;48.730;9.336;2022-10-04T13:52:12;3.30;;;2.00;;
5981;SDS011;3018;48.730;9.336;2022-10-04T13:55:01;2.83;;;1.83;;
5981;SDS011;3018;48.730;9.336;2022-10-04T13:57:50;8.13;;;1.63;;
5981;SDS011;3018;48.730;9.336;2022-10-04T14:00:19;3.22;;;1.50;;
5981;SDS011;3018;48.730;9.336;2022-10-04T14:03:02;2.92;;;1.55;;
5981;SDS011;3018;48.730;9.336;2022-10-04T14:05:51;3.72;;;1.88;;
5981;SDS011;3018;48.730;9.336;2022-10-04T14:08:35;3.00;;;1.42;;
5981;SDS011;3018;48.730;9.336;2022-10-04T14:11:12;4.32;;;1.48;;
5981;SDS011;3018;48.730;9.336;2022-10-04T14:16:34;4.47;;;1.38;;
5981;SDS011;3018;48.730;9.336;2022-10-04T14:19:27;4.35;;;2.00;;
5981;SDS011;3018;48.730;9.336;2022-10-04T14:27:39;4.25;;;1.60;;
5981;SDS011;3018;48.730;9.336;2022-10-04T14:30:15;4.57;;;1.70;;
5981;SDS011;3018;48.730;9.336;2022-10-04T14:35:38;1.85;;;1.73;;
5981;SDS011;3018;48.730;9.336;2022-10-04T14:40:51;3.28;;;1.30;;
5981;SDS011;3018;48.730;9.336;2022-10-04T14:46:08;2.92;;;1.60;;
5981;SDS011;3018;48.730;9.336;2022-10-04T14:48:44;3.13;;;1.80;;
5981;SDS011;3018;48.730;9.336;2022-10-04T14:51:14;2.92;;;1.42;;
5981;SDS011;3018;48.730;9.336;2022-10-04T14:53:47;3.58;;;1.70;;
5981;SDS011;3018;48.730;9.336;2022-10-04T14:58:59;5.50;;;2.00;;
5981;SDS011;3018;48.730;9.336;2022-10-04T15:01:30;3.17;;;1.75;;
5981;SDS011;3018;48.730;9.336;2022-10-04T15:04:11;3.33;;;1.40;;
5981;SDS011;3018;48.730;9.336;2022-10-04T15:06:44;1.65;;;1.50;;
5981;SDS011;3018;48.730;9.336;2022-10-04T15:11:58;2.70;;;1.50;;
5981;SDS011;3018;48.730;9.336;2022-10-04T15:14:28;2.85;;;1.40;;
5981;SDS011;3018;48.730;9.336;2022-10-04T15:17:00;1.77;;;1.33;;
5981;SDS011;3018;48.730;9.336;2022-10-04T15:19:28;1.92;;;1.35;;
5981;SDS011;3018;48.730;9.336;2022-10-04T15:22:00;1.65;;;1.52;;
5981;SDS011;3018;48.730;9.336;2022-10-04T15:24:28;4.40;;;1.23;;
5981;SDS011;3018;48.730;9.336;2022-10-04T15:27:13;2.88;;;1.63;;
5981;SDS011;3018;48.730;9.336;2022-10-04T15:29:42;3.33;;;1.50;;
5981;SDS011;3018;48.730;9.336;2022-10-04T15:32:17;6.60;;;1.45;;
5981;SDS011;3018;48.730;9.336;2022-10-04T15:34:55;2.63;;;1.52;;
5981;SDS011;3018;48.730;9.336;2022-10-04T15:37:25;5.47;;;1.63;;
5981;SDS011;3018;48.730;9.336;2022-10-04T15:40:01;3.63;;;1.60;;
5981;SDS011;3018;48.730;9.336;2022-10-04T15:42:29;2.13;;;1.48;;
5981;SDS011;3018;48.730;9.336;2022-10-04T15:45:09;4.47;;;1.48;;
5981;SDS011;3018;48.730;9.336;2022-10-04T15:47:54;2.20;;;1.70;;
5981;SDS011;3018;48.730;9.336;2022-10-04T15:50:22;2.78;;;1.52;;
5981;SDS011;3018;48.730;9.336;2022-10-04T15:53:04;3.00;;;1.60;;
5981;SDS011;3018;48.730;9.336;2022-10-04T15:58:29;3.50;;;1.30;;
5981;SDS011;3018;48.730;9.336;2022-10-04T16:01:11;7.32;;;1.77;;
5981;SDS011;3018;48.730;9.336;2022-10-04T16:03:44;1.77;;;1.38;;
5981;SDS011;3018;48.730;9.336;2022-10-04T16:06:16;3.15;;;1.70;;
5981;SDS011;3018;48.730;9.336;2022-10-04T16:08:48;3.00;;;1.40;;
5981;SDS011;3018;48.730;9.336;2022-10-04T16:14:00;2.35;;;1.50;;
5981;SDS011;3018;48.730;9.336;2022-10-04T16:19:35;3.88;;;1.25;;
5981;SDS011;3018;48.730;9.336;2022-10-04T16:22:07;1.50;;;1.40;;
5981;SDS011;3018;48.730;9.336;2022-10-04T16:24:39;1.42;;;1.33;;
5981;SDS011;3018;48.730;9.336;2022-10-04T16:27:12;3.25;;;1.40;;
5981;SDS011;3018;48.730;9.336;2022-10-04T16:29:45;1.75;;;1.50;;
5981;SDS011;3018;48.730;9.336;2022-10-04T16:32:17;2.53;;;1.73;;
5981;SDS011;3018;48.730;9.336;2022-10-04T16:34:47;2.78;;;1.83;;
5981;SDS011;3018;48.730;9.336;2022-10-04T16:37:17;2.75;;;1.88;;
5981;SDS011;3018;48.730;9.336;2022-10-04T16:39:51;2.30;;;2.20;;
5981;SDS011;3018;48.730;9.336;2022-10-04T16:42:33;3.47;;;2.35;;
5981;SDS011;3018;48.730;9.336;2022-10-04T16:47:49;3.65;;;2.60;;
5981;SDS011;3018;48.730;9.336;2022-10-04T16:53:01;8.32;;;4.05;;
5981;SDS011;3018;48.730;9.336;2022-10-04T16:55:32;4.03;;;3.63;;
5981;SDS011;3018;48.730;9.336;2022-10-04T17:00:46;4.35;;;3.22;;
5981;SDS011;3018;48.730;9.336;2022-10-04T17:03:16;3.70;;;2.83;;
5981;SDS011;3018;48.730;9.336;2022-10-04T17:05:54;3.13;;;2.80;;
5981;SDS011;3018;48.730;9.336;2022-10-04T17:08:29;4.75;;;2.75;;
5981;SDS011;3018;48.730;9.336;2022-10-04T17:11:06;6.18;;;2.80;;
5981;SDS011;3018;48.730;9.336;2022-10-04T17:13:35;3.67;;;2.58;;
5981;SDS011;3018;48.730;9.336;2022-10-04T17:16:09;3.45;;;2.53;;
5981;SDS011;3018;48.730;9.336;2022-10-04T17:18:40;3.05;;;2.80;;
5981;SDS011;3018;48.730;9.336;2022-10-04T17:21:10;5.60;;;2.50;;
5981;SDS011;3018;48.730;9.336;2022-10-04T17:23:50;5.50;;;2.55;;
5981;SDS011;3018;48.730;9.336;2022-10-04T17:26:22;5.75;;;2.80;;
5981;SDS011;3018;48.730;9.336;2022-10-04T17:28:54;3.80;;;3.22;;
5981;SDS011;3018;48.730;9.336;2022-10-04T17:31:25;4.32;;;3.05;;
5981;SDS011;3018;48.730;9.336;2022-10-04T17:33:54;4.50;;;3.13;;